CheckWX is a tool to help pilots better visualize weather data.  It is not intended as a substitute for an official pre-flight weather briefing.

00:12:42 UTC

KAFP METAR
Anson County - Jeff Cloud Field Airport
Wadesboro, North Carolina, USA
Current

38 mins ago

KAFP 272335Z AUTO 14015G27KT 5SM -RA SCT013 BKN021 OVC044 23/22 A2986 RMK AO2 P0005 T02330217
Observed
May-27 @ 23:35 UTC
Wind
  • 140° at 15 KTS
  • Gusting to 27 KTS
Visibility
Flight Rules
MVFR
Conditions
Light Rain
Cloud Levels
  • Scattered at 1,300' AGL
  • Broken at 2,100' AGL
  • Overcast at 4,400' AGL
Temperature
23°C / 73°F
Dewpoint
22°C / 72°F
Humidity
94%
Altimeter
29.86" Hg
Pressure
1011.22 hPa
Current Rain
0.05"
Previous

58 mins ago

KAFP 272315Z AUTO 13014G25KT 4SM -RA BKN013 OVC022 23/22 A2985 RMK AO2 P0003 T02330221
Observed
May-27 @ 23:15 UTC
Wind
  • 130° at 14 KTS
  • Gusting to 25 KTS
Visibility
Flight Rules
MVFR
Conditions
Light Rain
Cloud Levels
  • Broken at 1,300' AGL
  • Overcast at 2,200' AGL
Temperature
23°C / 73°F
Dewpoint
22°C / 72°F
Humidity
94%
Altimeter
29.85" Hg
Pressure
1010.82 hPa
Current Rain
0.03"
Previous

1 hour ago

KAFP 272255Z AUTO 09009G16KT 5SM RA OVC015 23/22 A2984 RMK AO2 P0003 T02320220
Observed
May-27 @ 22:55 UTC
Wind
  • 090° at 9 KTS
  • Gusting to 16 KTS
Visibility
Flight Rules
MVFR
Conditions
Rain
Cloud Levels
  • Overcast at 1,500' AGL
Temperature
23°C / 73°F
Dewpoint
22°C / 72°F
Humidity
94%
Altimeter
29.84" Hg
Pressure
1010.52 hPa
Current Rain
0.03"